Home > Products > Valid Products > TAF

000
FTUS44 KBMX 170100 AAA
TAFTOI
TAF AMD
KTOI 170112Z 1701/1724 21006KT P6SM SCT050 BKN120
     FM170300 VRB03KT P6SM SCT040 SCT120
     FM170900 VRB03KT P6SM SCT080
      TEMPO 1709/1713 4SM BR
     FM171400 32006KT P6SM SCT250=



000
FTUS44 KBMX 170100 AAA
TAFMGM
TAF AMD
KMGM 170111Z 1701/1724 34004KT P6SM SCT035 SCT250
     FM170300 VRB03KT P6SM SCT040 SCT120
     FM170900 30003KT P6SM SCT080
      TEMPO 1709/1713 4SM BR
     FM171400 33006KT P6SM SCT250=



000
FTUS44 KBMX 162300
TAFBHM
TAF
KBHM 162334Z 1700/1724 35006KT P6SM SCT050 SCT150
     FM170900 33004KT P6SM SCT015 BKN040
     FM171400 33007KT P6SM SCT250=



000
FTUS44 KBMX 162300
TAFANB
TAF
KANB 162334Z 1700/1724 34004KT P6SM SCT050 SCT100
     FM171000 33004KT P6SM SCT020 BKN040
      TEMPO 1710/1713 5SM BR
     FM171400 31006KT P6SM SCT250=



000
FTUS44 KBMX 162300
TAFTOI
TAF
KTOI 162334Z 1700/1724 VRB07KT P6SM VCTS SCT020 BKN035CB
     FM170300 VRB03KT P6SM SCT040 SCT120
     FM170900 30003KT P6SM SCT080
      TEMPO 1709/1713 4SM BR
     FM171400 32006KT P6SM SCT250=



000
FTUS44 KBMX 162300
TAFMGM
TAF
KMGM 162334Z 1700/1724 34004KT P6SM VCTS SCT020 BKN035CB
      TEMPO 1700/1701 VRB10KT
     FM170300 VRB03KT P6SM SCT040 SCT120
     FM170900 30003KT P6SM SCT080
      TEMPO 1709/1713 4SM BR
     FM171400 33006KT P6SM SCT250=



000
FTUS44 KBMX 162300
TAFEET
TAF
KEET 162334Z 1700/1724 33004KT P6SM FEW050 SCT120
     FM170900 33004KT P6SM SCT015 BKN040
      TEMPO 1709/1713 5SM BR
     FM171400 32006KT P6SM SCT250=



000
FTUS44 KBMX 162300
TAFTCL
TAF
KTCL 162334Z 1700/1724 32004KT P6SM FEW070 SCT150
     FM170900 32003KT P6SM SCT025 SCT040
      TEMPO 1709/1712 BKN025
     FM171400 33005KT P6SM SCT040 SCT250=



000
FTUS44 KBMX 161900 AAA
TAFTCL
TAF AMD
KTCL 161911Z 1619/1718 01006KT P6SM SCT040 BKN100
     FM162000 02009KT P6SM VCSH SCT040 SCT100
     FM170000 35005KT P6SM SCT100 SCT250
     FM170900 34004KT P6SM SCT015 SCT040
      TEMPO 1709/1713 4SM BR BKN015
     FM171400 35005KT P6SM SCT250=



000
FTUS44 KBMX 161900 AAA
TAFMGM
TAF AMD
KMGM 161911Z 1619/1718 35004KT P6SM SCT040 BKN100
     FM162100 33009KT P6SM VCSH SCT040 SCT100
     FM170100 33005KT P6SM SCT100 SCT250
     FM170900 33004KT P6SM SCT015 SCT040
      TEMPO 1709/1713 5SM BR
     FM171400 35005KT P6SM SCT250=



000
FTUS44 KBMX 161900 AAA
TAFANB
TAF AMD
KANB 161909Z 1619/1718 35006KT P6SM BKN040
     FM162000 33009KT P6SM VCSH SCT040 BKN100
     FM170000 33005KT P6SM SCT100 SCT250
     FM170900 33004KT P6SM SCT015 SCT040
      TEMPO 1709/1713 5SM BR
     FM171400 35005KT P6SM SCT250=



000
FTUS44 KBMX 161900 AAA
TAFEET
TAF AMD
KEET 161908Z 1619/1718 01004KT P6SM SCT040 BKN100
     FM162000 33009KT P6SM VCSH SCT040 SCT100
     FM170000 33005KT P6SM SCT100 SCT250
     FM170900 33004KT P6SM SCT015 SCT040
      TEMPO 1709/1713 5SM BR
     FM171400 35005KT P6SM SCT250=



000
FTUS44 KBMX 161900 AAA
TAFBHM
TAF AMD
KBHM 161907Z 1619/1718 35004KT P6SM SCT040 BKN120
     FM162000 33009KT P6SM VCSH SCT040 SCT100
     FM170000 33005KT P6SM SCT100 SCT250
     FM170900 33004KT P6SM SCT015 SCT040
      TEMPO 1709/1713 5SM BR
     FM171400 35005KT P6SM SCT250=



000
FTUS44 KBMX 161900 AAA
TAFTOI
TAF AMD
KTOI 161906Z 1619/1718 35004KT P6SM VCSH SCT040 BKN100
     FM170100 33005KT P6SM SCT100 SCT250
     FM170900 33004KT P6SM SCT015 SCT040
      TEMPO 1709/1713 5SM BR
     FM171400 35005KT P6SM SCT250=



000
FTUS44 KBMX 161700
TAFEET
TAF
KEET 161720Z 1618/1718 01004KT P6SM SCT040 BKN100
     FM162000 33009KT P6SM VCTS SCT040CB SCT100
      TEMPO 1620/1624 -SHRA BKN040
     FM170000 33005KT P6SM SCT100 SCT250
     FM170900 33004KT P6SM SCT015 SCT040
      TEMPO 1709/1713 5SM BR
     FM171400 35005KT P6SM SCT250=



000
FTUS44 KBMX 161700
TAFTOI
TAF
KTOI 161720Z 1618/1718 35004KT P6SM VCTS SCT040CB BKN100
      TEMPO 1619/1623 -SHRA BKN040
     FM170100 33005KT P6SM SCT100 SCT250
     FM170900 33004KT P6SM SCT015 SCT040
      TEMPO 1709/1713 5SM BR
     FM171400 35005KT P6SM SCT250=



000
FTUS44 KBMX 161700
TAFBHM
TAF
KBHM 161720Z 1618/1718 35004KT P6SM SCT040 BKN120
     FM162000 33009KT P6SM VCTS SCT040CB SCT100
      TEMPO 1620/1624 -SHRA BKN040
     FM170000 33005KT P6SM SCT100 SCT250
     FM170900 33004KT P6SM SCT015 SCT040
      TEMPO 1709/1713 5SM BR
     FM171400 35005KT P6SM SCT250=



000
FTUS44 KBMX 161700
TAFMGM
TAF
KMGM 161720Z 1618/1718 35004KT P6SM SCT040 BKN100
     FM162100 33009KT P6SM VCTS SCT040CB SCT100
      TEMPO 1621/1701 -SHRA BKN040
     FM170100 33005KT P6SM SCT100 SCT250
     FM170900 33004KT P6SM SCT015 SCT040
      TEMPO 1709/1713 5SM BR
     FM171400 35005KT P6SM SCT250=



000
FTUS44 KBMX 161700
TAFANB
TAF
KANB 161720Z 1618/1718 VRB03KT P6SM BKN015 BKN100
     FM161900 35006KT P6SM BKN040
     FM162000 33009KT P6SM VCTS SCT040CB BKN100
      TEMPO 1620/1624 -SHRA BKN040
     FM170000 33005KT P6SM SCT100 SCT250
     FM170900 33004KT P6SM SCT015 SCT040
      TEMPO 1709/1713 5SM BR
     FM171400 35005KT P6SM SCT250=



000
FTUS44 KBMX 161700
TAFTCL
TAF
KTCL 161720Z 1618/1718 01006KT P6SM SCT040 BKN100
     FM162000 02009KT P6SM VCTS SCT040CB SCT100
      TEMPO 1621/1624 -SHRA BKN040
     FM170000 35005KT P6SM SCT100 SCT250
     FM170900 34004KT P6SM SCT015 SCT040
      TEMPO 1709/1713 4SM BR BKN015
     FM171400 35005KT P6SM SCT250=



000
FTUS44 KBMX 161600 AAB
TAFANB
TAF AMD
KANB 161613Z 1616/1712 32006KT P6SM BKN010 BKN040
     FM161800 33006KT P6SM SCT025 SCT040
      TEMPO 1620/1623 6SM -TSRA BR OVC040CB
     FM170100 33003KT P6SM SCT250=



000
FTUS44 KBMX 161600 AAA
TAFTOI
TAF AMD
KTOI 161613Z 1616/1712 34004KT P6SM BKN025 BKN150
     FM161800 34007KT P6SM VCTS SCT025 BKN040CB
      TEMPO 1621/1624 6SM TSRA BR OVC040CB
     FM170000 00000KT P6SM BKN250=



000
FTUS44 KBMX 161500 AAA
TAFANB
TAF AMD
KANB 161500Z 1615/1712 30005KT P6SM SCT007 BKN150
      TEMPO 1615/1616 BKN007
     FM161600 32006KT P6SM SCT040 BKN250
      TEMPO 1620/1623 6SM -TSRA BR OVC040CB
     FM170100 33003KT P6SM SCT250=



000
FTUS44 KBMX 161100 RRA
TAFTCL
TAF
KTCL 161139Z 1612/1712 00000KT 6SM BR BKN150
      TEMPO 1612/1614 4SM BR
     FM161400 36004KT P6SM SCT040 BKN150
     FM161900 34007KT P6SM SCT250
     FM170200 VRB02KT P6SM FEW250=



000
FTUS44 KBMX 161100 RRA
TAFMGM
TAF
KMGM 161139Z 1612/1712 00000KT P6SM FEW004 OVC150
      TEMPO 1612/1614 5SM BR
     FM161430 36004KT P6SM SCT035 BKN150
     FM162000 35009KT P6SM VCTS BKN050CB
      TEMPO 1621/1624 6SM TSRA BR OVC050CB
     FM170000 35002KT P6SM BKN250=



000
FTUS44 KBMX 161100 RRA
TAFTOI
TAF
KTOI 161139Z 1612/1712 00000KT 5SM BR OVC003
     FM161400 34003KT 6SM BR BKN007 BKN150
     FM161500 34004KT P6SM SCT015 BKN150
     FM162000 34007KT P6SM VCTS BKN040CB
      TEMPO 1621/1624 6SM TSRA BR OVC040CB
     FM170000 00000KT P6SM BKN250=



000
FTUS44 KBMX 161100 RRA
TAFANB
TAF
KANB 161139Z 1612/1712 VRB03KT 1/2SM FG VV002
     FM161330 VRB03KT 3SM BR OVC003
     FM161500 30005KT P6SM SCT015 BKN150
      TEMPO 1620/1623 6SM -TSRA BR OVC040CB
     FM170100 33003KT P6SM SCT250=



000
FTUS44 KBMX 161100 RRA
TAFEET
TAF
KEET 161139Z 1612/1712 00000KT P6SM BKN150
      TEMPO 1612/1614 5SM BR
     FM161400 33005KT P6SM SCT040 BKN250
      TEMPO 1620/1623 6SM -TSRA BR OVC040CB
     FM170000 00000KT P6SM SCT250=



000
FTUS44 KBMX 161100 RRA
TAFBHM
TAF
KBHM 161139Z 1612/1712 03003KT P6SM BKN028 OVC150
     FM161400 35004KT P6SM SCT035 BKN150
     FM161900 34009KT P6SM SCT250
     FM170000 35003KT P6SM SCT250=



000
FTUS44 KBMX 161000 AAC
TAFMGM
TAF AMD
KMGM 161058Z 1611/1706 35004KT P6SM BKN003 OVC150
      TEMPO 1611/1613 4SM BR
     FM162000 33007KT P6SM VCTS SCT040CB OVC050
      TEMPO 1621/1624 6SM TSRA BR OVC040CB
     FM170000 33003KT P6SM BKN250=



000
FTUS44 KBMX 161000 AAB
TAFTOI
TAF AMD
KTOI 161052Z 1611/1706 00000KT 1SM BR BKN002 BKN150
      TEMPO 1611/1614 4SM BR SCT002 BKN150
     FM161400 34005KT P6SM BKN150
     FM162000 34007KT P6SM VCTS SCT040CB OVC050
      TEMPO 1621/1624 6SM TSRA BR OVC040CB
     FM170000 33002KT P6SM BKN250=



000
FTUS44 KBMX 160900 AAA
TAFTOI
TAF AMD
KTOI 160902Z 1609/1706 36003KT P6SM BKN150
      TEMPO 1610/1613 4SM BR
     FM162000 34007KT P6SM VCTS SCT040CB OVC050
      TEMPO 1621/1624 6SM TSRA BR OVC040CB
     FM170000 33002KT P6SM BKN250=



000
FTUS44 KBMX 160800 AAA
TAFBHM
TAF AMD
KBHM 160820Z 1608/1706 00000KT P6SM BKN120 OVC250
     FM161400 35005KT P6SM SCT040 BKN250
     FM161900 32008KT P6SM SCT250
     FM170000 33003KT P6SM SCT250=



000
FTUS44 KBMX 160800 AAB
TAFMGM
TAF AMD
KMGM 160814Z 1608/1706 35003KT P6SM SCT060 OVC150
      TEMPO 1610/1613 4SM BR
     FM162000 33007KT P6SM VCTS SCT040CB OVC050
      TEMPO 1621/1624 6SM TSRA BR OVC040CB
     FM170000 33003KT P6SM BKN250=



000
FTUS44 KBMX 160600 AAA
TAFMGM
TAF AMD
KMGM 160654Z 1607/1706 00000KT 6SM BR SCT001
      TEMPO 1607/1609 1SM BR OVC001
     FM160900 00000KT P6SM OVC150
     FM161500 36004KT P6SM SCT020
     FM161800 29005KT P6SM VCTS SCT040CB OVC050
     FM170300 31003KT P6SM SCT250=



000
FTUS44 KBMX 160600 AAA
TAFEET
TAF AMD
KEET 160644Z 1607/1706 00000KT P6SM OVC150
      TEMPO 1609/1613 4SM BR
     FM161400 33004KT P6SM SCT040 BKN250
     FM161900 33007KT P6SM SCT250
     FM170100 33003KT P6SM SCT250=



000
FTUS44 KBMX 160500
TAFANB
TAF
KANB 160531Z 1606/1706 VRB03KT 3SM BR OVC002
      TEMPO 1606/1610 1SM BR OVC001
     FM161500 01004KT P6SM SCT015 BKN050
     FM161900 33007KT P6SM SCT250
     FM170100 33003KT P6SM SCT250=



000
FTUS44 KBMX 160500
TAFEET
TAF
KEET 160531Z 1606/1706 00000KT 4SM BR OVC001
      TEMPO 1609/1613 1SM BR
     FM161400 33004KT P6SM SCT040 BKN250
     FM161900 33007KT P6SM SCT250
     FM170100 33003KT P6SM SCT250=



000
FTUS44 KBMX 160500
TAFTCL
TAF
KTCL 160531Z 1606/1706 00000KT P6SM BKN120
     FM160900 00000KT 4SM BR SCT008 BKN015
      TEMPO 1611/1613 2SM BR BKN007
     FM161400 33004KT P6SM SCT040 BKN250
     FM161900 33007KT P6SM SCT250
     FM170200 33003KT P6SM SCT250=



000
FTUS44 KBMX 160500
TAFTOI
TAF
KTOI 160531Z 1606/1706 00000KT 4SM BR BKN120
     FM160800 00000KT 3SM BR SCT004 BKN015
      TEMPO 1609/1613 1SM BR OVC002
     FM161500 36004KT P6SM SCT020
     FM161800 29005KT P6SM VCTS SCT040CB OVC050
     FM170300 31003KT P6SM SCT250=



000
FTUS44 KBMX 160500
TAFMGM
TAF
KMGM 160531Z 1606/1706 00000KT P6SM OVC004
      TEMPO 1609/1613 2SM BR
     FM161500 36004KT P6SM SCT020
     FM161800 29005KT P6SM VCTS SCT040CB OVC050
     FM170300 31003KT P6SM SCT250=



000
FTUS44 KBMX 160500
TAFBHM
TAF
KBHM 160531Z 1606/1706 03004KT P6SM BKN120 BKN250
     FM160800 00000KT 6SM BR SCT009 BKN015
      TEMPO 1610/1613 4SM BR BKN007 OVC015
     FM161400 33005KT P6SM SCT040 BKN250
     FM161900 31007KT P6SM SCT250
     FM170200 33003KT P6SM SCT250=



000
FTUS44 KBMX 160400 AAD
TAFEET
TAF AMD
KEET 160415Z 1604/1624 00000KT P6SM SCT004 BKN100
      TEMPO 1604/1607 4SM BR BKN003
     FM160700 00000KT 1SM BR OVC003
     FM161400 33004KT P6SM SCT040 BKN250
     FM161900 33007KT P6SM SCT250=



000
FTUS44 KBMX 160400 AAD
TAFEET
TAF AMD
KEET 160415Z 1604/1624 00000KT P6SM SCT004 BKN100
      TEMPO 1604/1607 4SM BR BKN003
     FM160700 00000KT 1SM BR OVC003
     FM161400 33004KT P6SM SCT040 BKN250
     FM161900 33007KT P6SM SCT250=



000
FTUS44 KBMX 160400 AAC
TAFEET
TAF AMD
KEET 160401Z 1604/1624 00000KT P6SM SCT004 BKN100
      TEMPO 1606/1609 4SM BR BKN004
     FM160900 00000KT 2SM BR BKN004 OVC015
     FM161400 33004KT P6SM SCT040 BKN250
     FM161900 33007KT P6SM SCT250=



000
FTUS44 KBMX 160300 AAB
TAFEET
TAF AMD
KEET 160317Z 1603/1624 00000KT P6SM SCT004 BKN100
      TEMPO 1604/1608 4SM BR BKN004
     FM160900 00000KT 2SM BR BKN004 OVC015
     FM161400 33004KT P6SM SCT040 BKN250
     FM161900 33007KT P6SM SCT250=



000
FTUS44 KBMX 160100 AAB
TAFANB
TAF AMD
KANB 160124Z 1601/1624 00000KT P6SM VCSH BKN006 BKN100
     FM160800 00000KT 4SM BR OVC006
      TEMPO 1610/1613 2SM BR OVC005
     FM161500 01004KT P6SM SCT015 BKN050=



000
FTUS44 KBMX 160100 AAA
TAFEET
TAF AMD
KEET 160123Z 1601/1624 00000KT P6SM VCSH BKN003 BKN100
     FM160900 00000KT 2SM BR BKN004 OVC015
     FM161400 33004KT P6SM SCT040 BKN250
     FM161900 33007KT P6SM SCT250=



000
FTUS44 KBMX 160000 AAA
TAFANB
TAF AMD
KANB 160016Z 1600/1624 00000KT P6SM VCSH SCT007 BKN100
      TEMPO 1600/1602 BKN007
     FM160400 00000KT P6SM SCT007 BKN100
     FM160800 00000KT 4SM BR SCT005 BKN010
      TEMPO 1610/1613 2SM BR OVC005
     FM161500 01004KT P6SM SCT015 BKN050=



000
FTUS44 KBMX 152300
TAFMGM
TAF
KMGM 152338Z 1600/1624 03007KT 6SM SHRA VCTS BKN040CB
      TEMPO 1600/1602 3SM TSRA SCT025CB BKN035
     FM160300 00000KT P6SM BKN100
     FM160700 00000KT 4SM BR SCT007 BKN015
      TEMPO 1609/1613 2SM BR OVC005
     FM161500 36004KT P6SM SCT020
     FM161800 29005KT P6SM VCTS SCT040CB OVC050=



000
FTUS44 KBMX 152300
TAFANB
TAF
KANB 152338Z 1600/1624 00000KT P6SM VCSH BKN100
     FM160400 00000KT P6SM BKN100
     FM160800 00000KT 4SM BR SCT005 BKN010
      TEMPO 1610/1613 2SM BR OVC005
     FM161500 01004KT P6SM SCT015 BKN050=



000
FTUS44 KBMX 152300
TAFTCL
TAF
KTCL 152338Z 1600/1624 01003KT P6SM VCSH BKN100
     FM160200 00000KT P6SM BKN100
     FM160900 00000KT 4SM BR SCT008 BKN015
     FM161400 33004KT P6SM SCT040 BKN250
     FM161900 33007KT P6SM SCT250=



000
FTUS44 KBMX 152300
TAFEET
TAF
KEET 152338Z 1600/1624 00000KT P6SM VCSH BKN100
     FM160300 00000KT P6SM BKN100
     FM160900 00000KT 4SM BR SCT008 BKN015
     FM161400 33004KT P6SM SCT040 BKN250
     FM161900 33007KT P6SM SCT250=



000
FTUS44 KBMX 152300
TAFBHM
TAF
KBHM 152338Z 1600/1624 VRB02KT P6SM VCSH BKN100
     FM160300 00000KT P6SM BKN100
     FM161000 00000KT 5SM BR SCT009 BKN015
     FM161400 33005KT P6SM SCT040 BKN250
     FM161900 33007KT P6SM SCT250=



000
FTUS44 KBMX 152300
TAFTOI
TAF
KTOI 152338Z 1600/1624 VRB03KT P6SM VCTS SCT045CB BKN060
      TEMPO 1602/1604 3SM TSRA SCT025CB BKN035
     FM160500 00000KT P6SM SCT015 BKN100
     FM160800 00000KT 4SM BR SCT007 BKN015
      TEMPO 1609/1613 1SM BR OVC002
     FM161500 36004KT P6SM SCT020
     FM161800 29005KT P6SM VCTS SCT040CB OVC050=



000
FTUS44 KBMX 152200 AAB
TAFMGM
TAF AMD
KMGM 152243Z 1523/1618 03007KT 4SM SHRA VCTS BKN040CB
      TEMPO 1523/1601 2SM TSRA BKN030CB
     FM160200 00000KT P6SM BKN100
     FM160800 00000KT 4SM BR SCT015
     FM161400 35005KT P6SM SCT020=



000
FTUS44 KBMX 152200 AAA
TAFMGM
TAF AMD
KMGM 152206Z 1522/1618 VRB03KT P6SM VCTS SCT045CB BKN060
     FM152215 08007KT 4SM SHRA VCTS BKN040CB
      TEMPO 1523/1524 2SM TSRA BKN030CB
     FM160200 00000KT P6SM BKN100
     FM160800 00000KT 4SM BR SCT015
     FM161400 35005KT P6SM SCT020=



000
FTUS44 KBMX 152100 AAB
TAFANB
TAF AMD
KANB 152126Z 1521/1618 VRB03KT P6SM VCTS SCT035CB BKN050
      TEMPO 1521/1523 2SM TSRA BKN020CB
     FM160000 00000KT P6SM BKN100
     FM160800 00000KT 4SM BR SCT004 BKN007
     FM161500 01004KT P6SM SCT015 BKN050=



000
FTUS44 KBMX 152100 AAD
TAFEET
TAF AMD
KEET 152103Z 1521/1618 VRB03KT P6SM VCTS SCT025CB BKN045
     FM152115 05010G20KT 1SM TSRA BKN025CB
     FM152215 VRB03KT P6SM VCSH SCT035 BKN050
     FM160000 00000KT P6SM BKN100
     FM160700 00000KT 4SM BR SCT008 BKN015
     FM161400 33004KT P6SM SCT040 BKN250=



000
FTUS44 KBMX 152000 AAA
TAFANB
TAF AMD
KANB 152040Z 1521/1618 VRB03KT P6SM VCTS SCT035CB BKN050
     FM160000 00000KT P6SM BKN100
     FM160800 00000KT 4SM BR SCT004 BKN007
     FM161500 01004KT P6SM SCT015 BKN050=



000
FTUS44 KBMX 152000 AAC
TAFEET
TAF AMD
KEET 152032Z 1521/1618 VRB03KT P6SM VCTS SCT025CB BKN045
     FM152200 VRB03KT P6SM VCSH SCT035 BKN050
     FM160000 00000KT P6SM BKN100
     FM160700 00000KT 4SM BR SCT008 BKN015
     FM161400 33004KT P6SM SCT040 BKN250=



000
FTUS44 KBMX 152000 AAC
TAFBHM
TAF AMD
KBHM 152027Z 1520/1618 04004KT P6SM VCTS SCT025CB BKN050
     FM152200 03004KT P6SM VCSH SCT035 BKN050
     FM160000 VRB02KT P6SM BKN100
     FM160800 00000KT 5SM BR SCT009
     FM161400 33005KT P6SM SCT040 BKN250=



000
FTUS44 KBMX 151900 AAB
TAFBHM
TAF AMD
KBHM 151952Z 1520/1618 VRB05G15KT 2SM TSRA SCT030CB BKN050
     FM152100 04004KT P6SM VCTS SCT025CB BKN050
     FM152200 03004KT P6SM VCSH SCT035 BKN050
     FM160000 VRB02KT P6SM BKN100
     FM160800 00000KT 5SM BR SCT009
     FM161400 33005KT P6SM SCT040 BKN250=



000
FTUS44 KBMX 151900 AAB
TAFEET
TAF AMD
KEET 151945Z 1520/1618 VRB05G15KT 4SM TSRA SCT030CB BKN050
     FM152015 VRB03KT P6SM VCTS SCT025CB BKN045
     FM152100 VRB03KT P6SM VCSH SCT035 BKN050
     FM160000 00000KT P6SM BKN100
     FM160700 00000KT 4SM BR SCT008 BKN015
     FM161400 33004KT P6SM SCT040 BKN250=



000
FTUS44 KBMX 151900 AAA
TAFEET
TAF AMD
KEET 151925Z 1519/1618 VRB03KT P6SM VCTS SCT025CB BKN045
     FM152100 VRB03KT P6SM VCSH SCT035 BKN050
     FM160000 00000KT P6SM BKN100
     FM160700 00000KT 4SM BR SCT008 BKN015
     FM161400 33004KT P6SM SCT040 BKN250=



000
FTUS44 KBMX 151800 AAA
TAFBHM
TAF AMD
KBHM 151839Z 1519/1618 04004KT P6SM VCTS SCT025CB BKN050
     FM152200 03004KT P6SM VCSH SCT035 BKN050
     FM160000 VRB02KT P6SM BKN100
     FM160800 00000KT 5SM BR SCT009
     FM161400 33005KT P6SM SCT040 BKN250=



000
FTUS44 KBMX 151800 AAA
TAFTCL
TAF AMD
KTCL 151831Z 1519/1618 VRB03KT P6SM VCTS SCT025CB BKN045
     FM152000 01003KT P6SM VCSH SCT035 BKN050
     FM160000 01003KT P6SM BKN100=



000
FTUS44 KBMX 151700
TAFANB
TAF
KANB 151729Z 1518/1618 VRB03KT P6SM SCT035 BKN050
     FM152100 VRB03KT P6SM SCT035 BKN050
     FM160000 00000KT P6SM BKN100
     FM160800 00000KT 4SM BR SCT004 BKN007
     FM161500 01004KT P6SM SCT015 BKN050=



000
FTUS44 KBMX 151700
TAFTCL
TAF
KTCL 151729Z 1518/1618 VRB03KT P6SM SCT025 BKN045
     FM152200 01003KT P6SM VCSH SCT035 BKN050
     FM160000 01003KT P6SM BKN100=



000
FTUS44 KBMX 151700
TAFEET
TAF
KEET 151729Z 1518/1618 VRB03KT P6SM SCT025 BKN045
     FM152100 VRB03KT P6SM VCSH SCT035 BKN050
     FM160000 00000KT P6SM BKN100
     FM160700 00000KT 4SM BR SCT008 BKN015
     FM161400 33004KT P6SM SCT040 BKN250=



000
FTUS44 KBMX 151700
TAFTOI
TAF
KTOI 151729Z 1518/1618 VRB03KT P6SM SCT025 BKN045
     FM152200 VRB03KT P6SM VCTS SCT045CB BKN060
     FM160200 00000KT P6SM BKN100
     FM160800 00000KT 4SM BR SCT015
     FM161400 36004KT P6SM SCT020=



000
FTUS44 KBMX 151700
TAFBHM
TAF
KBHM 151729Z 1518/1618 04004KT P6SM SCT025 BKN050
     FM152100 03004KT P6SM VCSH SCT035 BKN050
     FM160000 VRB02KT P6SM BKN100
     FM160800 00000KT 5SM BR SCT009
     FM161400 33005KT P6SM SCT040 BKN250=



000
FTUS44 KBMX 151700
TAFMGM
TAF
KMGM 151729Z 1518/1618 VRB03KT P6SM SCT025 BKN045
     FM152200 VRB03KT P6SM VCTS SCT045CB BKN060
     FM160200 00000KT P6SM BKN100
     FM160800 00000KT 4SM BR SCT015
     FM161400 35005KT P6SM SCT020=



000
FTUS44 KBMX 151600 AAB
TAFMGM
TAF AMD
KMGM 151628Z 1516/1612 09005KT 6SM BR OVC009
     FM151700 VRB03KT P6SM SCT025 BKN045
     FM152000 VRB03KT P6SM VCSH SCT045 BKN060
      TEMPO 1522/1601 -TSRA BKN040CB
     FM160500 00000KT P6SM BKN100=



000
FTUS44 KBMX 151500 AAC
TAFTOI
TAF AMD
KTOI 151511Z 1515/1612 VRB03KT P6SM SCT009
     FM151600 VRB03KT P6SM SCT025 BKN045
     FM152000 VRB03KT P6SM VCSH SCT045 BKN060
      TEMPO 1522/1601 -TSRA BKN040CB
     FM160500 00000KT P6SM BKN100=



000
FTUS44 KBMX 151500 AAA
TAFMGM
TAF AMD
KMGM 151511Z 1515/1612 09005KT 6SM BR OVC005
     FM151600 VRB03KT P6SM SCT025 BKN045
     FM152000 VRB03KT P6SM VCSH SCT045 BKN060
      TEMPO 1522/1601 -TSRA BKN040CB
     FM160500 00000KT P6SM BKN100=



000
FTUS44 KBMX 151500 AAA
TAFANB
TAF AMD
KANB 151510Z 1515/1612 07005KT P6SM OVC007
     FM151700 VRB03KT P6SM SCT025 BKN045
     FM152100 VRB03KT P6SM VCSH SCT035 BKN050
     FM160000 00000KT P6SM BKN100=



000
FTUS44 KBMX 151500 AAB
TAFEET
TAF AMD
KEET 151508Z 1515/1612 VRB03KT P6SM OVC008
     FM151700 VRB03KT P6SM SCT025 BKN045
     FM152100 VRB03KT P6SM VCSH SCT035 BKN050
     FM160000 00000KT P6SM BKN100=



000
FTUS44 KBMX 151400 AAA
TAFEET
TAF AMD
KEET 151423Z 1514/1612 VRB03KT P6SM OVC006
     FM151500 VRB03KT P6SM OVC013
     FM151700 VRB03KT P6SM SCT025 BKN045
     FM152100 VRB03KT P6SM VCSH SCT035 BKN050
     FM160000 00000KT P6SM BKN100=



000
FTUS44 KBMX 151300 AAB
TAFTOI
TAF AMD
KTOI 151321Z 1513/1612 VRB03KT 6SM BR OVC003
     FM151500 VRB03KT P6SM OVC009
     FM151600 VRB03KT P6SM SCT025 BKN045
     FM152000 VRB03KT P6SM VCSH SCT045 BKN060
      TEMPO 1522/1601 -TSRA BKN040CB
     FM160500 00000KT P6SM BKN100=



000
FTUS44 KBMX 151200 AAA
TAFTOI
TAF AMD
KTOI 151227Z 1512/1612 00000KT 1/2SM FG OVC002
      TEMPO 1513/1514 2SM BR
     FM151400 VRB03KT 4SM BR OVC005
     FM151500 VRB03KT P6SM OVC009
     FM151600 VRB03KT P6SM SCT025 BKN045
     FM152000 VRB03KT P6SM VCSH SCT045 BKN060
      TEMPO 1522/1601 -TSRA BKN040CB
     FM160500 00000KT P6SM BKN100=



000
FTUS44 KBMX 151100
TAFMGM
TAF
KMGM 151139Z 1512/1612 09005KT 6SM BR OVC005
      TEMPO 1512/1514 4SM BR
     FM151500 VRB03KT P6SM OVC013
     FM151800 VRB03KT P6SM SCT025 BKN045
     FM152000 VRB03KT P6SM VCSH SCT045 BKN060
      TEMPO 1522/1601 -TSRA BKN040CB
     FM160500 00000KT P6SM BKN100=



000
FTUS44 KBMX 151100
TAFANB
TAF
KANB 151139Z 1512/1612 07005KT P6SM OVC006
     FM151500 VRB03KT P6SM OVC013
     FM151800 VRB03KT P6SM SCT025 BKN045
     FM152100 VRB03KT P6SM VCSH SCT035 BKN050
     FM160000 00000KT P6SM BKN100=



000
FTUS44 KBMX 151100
TAFTOI
TAF
KTOI 151139Z 1512/1612 00000KT 6SM BR OVC005
      TEMPO 1512/1514 4SM BR
     FM151500 VRB03KT P6SM OVC013
     FM151800 VRB03KT P6SM SCT025 BKN045
     FM152000 VRB03KT P6SM VCSH SCT045 BKN060
      TEMPO 1522/1601 -TSRA BKN040CB
     FM160500 00000KT P6SM BKN100=



000
FTUS44 KBMX 151100
TAFTCL
TAF
KTCL 151139Z 1512/1612 VRB03KT P6SM BKN006
     FM151400 VRB03KT P6SM BKN013
     FM151700 VRB03KT P6SM SCT025 BKN045
     FM152200 VRB03KT P6SM VCSH SCT035 BKN050
     FM160000 00000KT P6SM BKN100=



000
FTUS44 KBMX 151100
TAFEET
TAF
KEET 151139Z 1512/1612 VRB03KT P6SM OVC006
     FM151400 VRB03KT P6SM OVC013
     FM151700 VRB03KT P6SM SCT025 BKN045
     FM152100 VRB03KT P6SM VCSH SCT035 BKN050
     FM160000 00000KT P6SM BKN100=



000
FTUS44 KBMX 151100
TAFBHM
TAF
KBHM 151139Z 1512/1612 09004KT P6SM OVC007
     FM151400 08004KT P6SM OVC015
     FM151700 04004KT P6SM SCT025 BKN050
     FM152100 03004KT P6SM VCSH SCT035 BKN050
     FM160000 VRB02KT P6SM BKN100=



000
FTUS44 KBMX 151000 AAB
TAFMGM
TAF AMD
KMGM 151016Z 1510/1606 10005KT P6SM SCT110
      TEMPO 1510/1513 BKN007 BKN110
     FM151600 10005KT P6SM BKN050
      TEMPO 1521/1601 -SHRA=



000
FTUS44 KBMX 150900 AAB
TAFEET
TAF AMD
KEET 150920Z 1509/1606 00000KT P6SM FEW008
      TEMPO 1510/1514 4SM BR BKN008
     FM151400 VRB03KT P6SM BKN015
     FM151700 VRB03KT P6SM BKN045
     FM160000 00000KT P6SM SCT060=



000
FTUS44 KBMX 150800 AAA
TAFMGM
TAF AMD
KMGM 150857Z 1509/1606 10005KT P6SM SCT110
      TEMPO 1510/1513 BKN015 BKN110
     FM151600 10005KT P6SM BKN050
      TEMPO 1521/1601 -SHRA=



000
FTUS44 KBMX 150700 AAA
TAFTOI
TAF AMD
KTOI 150734Z 1508/1606 06003KT P6SM BKN045 BKN060
     FM150900 00000KT 4SM BR SCT007 BKN015
     FM151100 11003KT 2SM BR OVC007
     FM151400 12003KT 6SM BR OVC015
     FM151600 13004KT P6SM BKN050
      TEMPO 1521/1601 -SHRA=



000
FTUS44 KBMX 150700 AAA
TAFANB
TAF AMD
KANB 150722Z 1507/1606 06007KT P6SM OVC007
     FM151000 06003KT 4SM BR OVC007
     FM151300 VRB03KT 4SM BR BKN015
     FM151700 16005KT P6SM VCSH SCT015 OVC060
     FM152000 34005KT P6SM SHRA VCTS SCT025CB BKN050=



000
FTUS44 KBMX 150700 AAA
TAFEET
TAF AMD
KEET 150718Z 1507/1606 00000KT P6SM OVC009
     FM150900 00000KT 4SM BR OVC009
     FM151400 VRB03KT P6SM OVC015
     FM151700 VRB03KT P6SM BKN045
     FM160000 00000KT P6SM SCT060=



000
FTUS44 KBMX 150500
TAFTOI
TAF
KTOI 150528Z 1506/1606 00000KT P6SM SCT015 BKN050
     FM150700 00000KT 4SM BR SCT006 BKN015
     FM151000 11003KT 2SM BR OVC005
     FM151500 15003KT 6SM BR VCSH OVC015
     FM152000 16004KT 4SM SHRA VCTS SCT025CB BKN050=



000
FTUS44 KBMX 150500
TAFMGM
TAF
KMGM 150528Z 1506/1606 06002KT P6SM SCT250
     FM150800 08003KT 6SM BR BKN015
      TEMPO 1510/1513 4SM BR BKN007 OVC015
     FM151600 VRB03KT P6SM VCSH SCT015 OVC060
     FM151800 16004KT 4SM SHRA VCTS SCT025CB BKN050=



000
FTUS44 KBMX 150500
TAFANB
TAF
KANB 150528Z 1506/1606 06007KT 4SM BR OVC011
      TEMPO 1507/1510 4SM BR BKN007
     FM151000 06003KT 4SM BR OVC007
     FM151300 VRB03KT 4SM BR BKN015
     FM151700 16005KT P6SM VCSH SCT015 OVC060
     FM152000 34005KT P6SM SHRA VCTS SCT025CB BKN050=



000
FTUS44 KBMX 150500
TAFBHM
TAF
KBHM 150528Z 1506/1606 VRB03KT P6SM SCT250
     FM150800 08002KT 4SM BR OVC015
      TEMPO 1512/1515 BKN008
     FM151700 VRB03KT P6SM VCSH SCT015 OVC060
     FM152100 35005KT P6SM SHRA VCTS SCT025CB BKN050=



000
FTUS44 KBMX 150500
TAFTCL
TAF
KTCL 150528Z 1506/1606 35005KT P6SM SCT250
      TEMPO 1510/1514 00000KT 4SM BR BKN015
     FM151400 00000KT 6SM BR SCT015
     FM151700 VRB03KT P6SM VCSH OVC060
     FM152100 35005KT P6SM VCTS SCT025CB BKN050=



000
FTUS44 KBMX 150500
TAFEET
TAF
KEET 150528Z 1506/1606 00000KT P6SM SCT250
      TEMPO 1508/1509 06002KT 5SM BR BKN015
     FM150900 08002KT 4SM BR OVC015
      TEMPO 1512/1515 BKN008
     FM151700 VRB03KT P6SM VCSH SCT015 OVC060
     FM152100 35005KT 4SM SHRA VCTS SCT025CB BKN050=



000
FTUS44 KBMX 150300 AAA
TAFANB
TAF AMD
KANB 150357Z 1504/1524 06005KT 4SM BR OVC015
      TEMPO 1510/1513 BKN007
     FM151300 VRB03KT 4SM BR BKN015
     FM151700 16005KT P6SM VCSH SCT015 OVC060
     FM152000 34005KT P6SM VCTS SCT025CB BKN050=



000
FTUS44 KBMX 150200 AAB
TAFMGM
TAF AMD
KMGM 150252Z 1503/1524 03006KT P6SM SHRA VCTS SCT050CB BKN250
      TEMPO 1503/1504 3SM -TSRA
     FM150500 06002KT P6SM SCT250
     FM150900 08003KT 6SM BR BKN015
      TEMPO 1510/1513 4SM BR BKN007 OVC015
     FM151600 VRB03KT P6SM VCSH SCT015 OVC060
     FM151800 16004KT 4SM SHRA VCTS SCT025CB BKN050=



000
FTUS44 KBMX 150200 AAA
TAFMGM
TAF AMD
KMGM 150236Z 1503/1524 03006KT P6SM VCSH SCT050 BKN250
      TEMPO 1503/1504 3SM SHRA
     FM150400 06002KT P6SM SCT250
     FM150900 08003KT 6SM BR BKN015
      TEMPO 1510/1513 4SM BR BKN007 OVC015
     FM151600 VRB03KT P6SM VCSH SCT015 OVC060
     FM151800 16004KT 4SM SHRA VCTS SCT025CB BKN050=



000
FTUS44 KBMX 142300
TAFTCL
TAF
KTCL 142320Z 1500/1524 35005KT P6SM SCT250
      TEMPO 1511/1513 00000KT 4SM BR
     FM151700 VRB03KT P6SM OVC060=



000
FTUS44 KBMX 142300
TAFANB
TAF
KANB 142320Z 1500/1524 06003KT P6SM SCT250
     FM150900 07002KT 4SM BR BKN020
      TEMPO 1510/1513 BKN007 OVC015
     FM151300 VRB03KT 4SM BR BKN015
     FM151700 16005KT P6SM VCSH SCT015 OVC060
     FM152000 34005KT P6SM VCTS SCT025CB BKN050=



000
FTUS44 KBMX 142300
TAFMGM
TAF
KMGM 142320Z 1500/1524 03006KT P6SM VCSH SCT050 BKN250
     FM150200 06002KT P6SM SCT250
     FM150900 08003KT 6SM BR BKN015
      TEMPO 1510/1513 4SM BR BKN007 OVC015
     FM151600 VRB03KT P6SM VCSH SCT015 OVC060
     FM151800 16004KT 4SM SHRA VCTS SCT025CB BKN050=



000
FTUS44 KBMX 142300
TAFBHM
TAF
KBHM 142320Z 1500/1524 VRB03KT P6SM SCT250
     FM151300 08002KT 4SM BR OVC015
     FM151800 VRB03KT P6SM VCSH SCT015 OVC060
     FM152100 35005KT P6SM VCTS SCT025CB BKN050=



000
FTUS44 KBMX 142300
TAFEET
TAF
KEET 142320Z 1500/1524 00000KT P6SM SCT250
      TEMPO 1511/1513 06002KT 5SM BR BKN015
     FM151300 08002KT 4SM BR OVC015
     FM151800 VRB03KT P6SM VCSH SCT015 OVC060
     FM152100 35005KT P6SM VCTS SCT025CB BKN050=



000
FTUS44 KBMX 142300
TAFTOI
TAF
KTOI 142320Z 1500/1524 05006KT P6SM VCSH SCT040 BKN250
     FM150500 00000KT 4SM BR SCT006 BKN015
     FM151000 11003KT 2SM BR OVC005
     FM151500 15003KT 6SM BR VCSH OVC015
     FM152000 16004KT 4SM SHRA VCTS SCT025CB BKN050=



000
FTUS44 KBMX 141700
TAFTOI
TAF
KTOI 141732Z 1418/1518 04004KT P6SM SCT035
     FM142000 05006KT P6SM VCTS SCT045CB BKN250
      TEMPO 1422/1502 3SM TSRA BKN025CB OVC050
     FM150400 00000KT 2SM BR OVC006
     FM151500 15003KT P6SM VCSH OVC015=



000
FTUS44 KBMX 141700
TAFTCL
TAF
KTCL 141732Z 1418/1518 02006KT P6SM SCT050
     FM150000 00000KT P6SM SCT250
      TEMPO 1511/1513 06002KT 6SM BR
     FM151500 VRB03KT P6SM OVC060=



000
FTUS44 KBMX 141700
TAFBHM
TAF
KBHM 141732Z 1418/1518 01006KT P6SM SCT050
     FM150200 06002KT P6SM SCT250
      TEMPO 1511/1513 06002KT 5SM BR
     FM151300 VRB03KT P6SM VCSH OVC060=



000
FTUS44 KBMX 141700
TAFEET
TAF
KEET 141732Z 1418/1518 35005KT P6SM BKN040
     FM150000 00000KT P6SM SCT250
      TEMPO 1511/1513 06002KT 5SM BR
     FM151300 VRB03KT P6SM VCSH OVC060=



000
FTUS44 KBMX 141700
TAFANB
TAF
KANB 141732Z 1418/1518 04006KT P6SM BKN050
     FM150000 06003KT P6SM SCT250
     FM150900 07002KT 4SM BR BKN025=



000
FTUS44 KBMX 141700
TAFMGM
TAF
KMGM 141732Z 1418/1518 36003KT P6SM SCT040
     FM142000 03006KT P6SM VCTS SCT050CB BKN250
      TEMPO 1422/1502 3SM TSRA BKN025CB OVC050
     FM150200 06002KT P6SM SCT250
      TEMPO 1511/1513 06002KT 5SM BR
     FM151300 VRB03KT P6SM VCSH OVC060=



000
FTUS44 KBMX 141600 AAA
TAFMGM
TAF AMD
KMGM 141626Z 1416/1512 36003KT P6SM SCT040
     FM142000 03006KT P6SM VCTS SCT050CB BKN250
      TEMPO 1422/1502 3SM TSRA BKN025CB OVC050
     FM150600 00000KT P6SM BKN025=



000
FTUS44 KBMX 141600 AAB
TAFTOI
TAF AMD
KTOI 141615Z 1416/1512 04004KT P6SM SCT035
     FM142000 05006KT P6SM VCTS SCT045CB BKN250
      TEMPO 1422/1502 3SM TSRA BKN025CB OVC050
     FM150400 00000KT 2SM BR OVC006=



000
FTUS44 KBMX 141400 AAA
TAFTOI
TAF AMD
KTOI 141459Z 1415/1512 03003KT P6SM BKN006
     FM141600 04004KT P6SM SCT035
      TEMPO 1416/1417 04004KT P6SM BKN015
     FM142000 05006KT P6SM VCTS SCT045CB BKN250
     FM150000 00000KT P6SM BKN250=



000
FTUS44 KBMX 141100 RRA
TAFMGM
TAF
KMGM 141139Z 1412/1512 36003KT P6SM SCT040
     FM142000 03006KT P6SM VCTS SCT050CB BKN250
     FM150000 08003KT P6SM BKN250=



000
FTUS44 KBMX 141100 RRA
TAFTCL
TAF
KTCL 141139Z 1412/1512 35003KT 6SM BR SKC
      TEMPO 1412/1414 5SM BR
     FM141500 02006KT P6SM SCT050
     FM150000 00000KT P6SM SCT250=



000
FTUS44 KBMX 141100 RRA
TAFBHM
TAF
KBHM 141139Z 1412/1512 01002KT P6SM SCT200
     FM141700 01006KT P6SM BKN050
     FM150200 06002KT P6SM SCT250=



000
FTUS44 KBMX 141100 RRA
TAFEET
TAF
KEET 141139Z 1412/1512 35003KT 6SM BR FEW027 SCT200
      TEMPO 1412/1414 5SM BR BKN027
     FM141500 35005KT P6SM BKN045
     FM150000 00000KT P6SM SCT250=



000
FTUS44 KBMX 141100 RRA
TAFTOI
TAF
KTOI 141139Z 1412/1512 03003KT 1SM BR OVC002
     FM141400 03003KT 5SM BR BKN012
     FM141600 04004KT P6SM SCT035
     FM142000 05006KT P6SM VCTS SCT045CB BKN250
     FM150000 00000KT P6SM BKN250=



000
FTUS44 KBMX 141100 RRA
TAFANB
TAF
KANB 141139Z 1412/1512 05004KT P6SM OVC028
     FM141400 05004KT P6SM SCT035 SCT250
     FM141700 04006KT P6SM BKN050
     FM150000 06003KT P6SM SCT250=



000
FTUS44 KBMX 141000 AAB
TAFTOI
TAF AMD
KTOI 141016Z 1410/1506 35003KT P6SM OVC008
     FM141400 03003KT P6SM BKN012
     FM142000 04006KT P6SM VCTS SCT045CB BKN250
     FM150000 00000KT P6SM BKN250=



000
FTUS44 KBMX 140800 AAA
TAFTOI
TAF AMD
KTOI 140839Z 1409/1506 01004KT P6SM SCT035
     FM142000 04006KT P6SM VCTS SCT045CB BKN250
     FM150000 00000KT P6SM BKN250=



000
FTUS44 KBMX 140800 AAA
TAFMGM
TAF AMD
KMGM 140832Z 1409/1506 01004KT P6SM SCT035
     FM142000 03006KT P6SM VCTS SCT045CB BKN250
     FM150000 08003KT P6SM BKN250=



000
FTUS44 KBMX 140500
TAFEET
TAF
KEET 140528Z 1406/1506 03002KT P6SM SCT250
     FM141000 00000KT 4SM BR SCT250
     FM141330 00000KT P6SM SCT250
     FM141700 01005KT P6SM BKN050
     FM150000 00000KT P6SM BKN250=



000
FTUS44 KBMX 140500
TAFMGM
TAF
KMGM 140528Z 1406/1506 01005KT P6SM BKN035
     FM140800 03002KT 6SM BR BKN010
     FM141400 04010KT P6SM BKN015
     FM141900 31006KT P6SM SCT015 BKN250
     FM150200 08003KT P6SM OVC250=



000
FTUS44 KBMX 140500
TAFTOI
TAF
KTOI 140528Z 1406/1506 02004KT P6SM BKN035
     FM140700 01004KT P6SM BKN015
     FM141000 00000KT 5SM BR BKN008
     FM141400 03008KT P6SM BKN012
     FM141900 31006KT P6SM SCT015 BKN250
     FM150200 08003KT P6SM OVC250=



000
FTUS44 KBMX 140500
TAFTCL
TAF
KTCL 140528Z 1406/1506 01006KT P6SM SCT035 SCT250
     FM141000 00000KT 5SM BR SKC
     FM141430 02005KT P6SM SCT050 SCT250
     FM150000 00000KT P6SM SCT250=



000
FTUS44 KBMX 140500
TAFBHM
TAF
KBHM 140528Z 1406/1506 03002KT P6SM SCT250
     FM141700 01004KT P6SM BKN050
     FM150300 06002KT P6SM BKN250=



000
FTUS44 KBMX 140500
TAFANB
TAF
KANB 140528Z 1406/1506 03006KT P6SM SCT250
     FM141000 00000KT 3SM BR SCT250
     FM141400 00000KT P6SM SCT250
     FM141700 01005KT P6SM BKN050
     FM150000 00000KT P6SM SCT250=



000
FTUS44 KBMX 140400 AAA
TAFTOI
TAF AMD
KTOI 140420Z 1404/1424 36008KT P6SM BKN050
     FM140800 01004KT P6SM VCSH BKN015
     FM141000 00000KT 5SM BR BKN008
     FM141400 03008KT P6SM BKN012
     FM141800 31006KT P6SM SCT015 BKN250=



    US Dept of Commerce
    National Oceanic and Atmospheric Administration
    National Weather Service
    1325 East West Highway
    Silver Spring, MD 20910
    Page Author: NWS Internet Services Team
Disclaimer
Information Quality
Credits
Glossary
Privacy Policy
Freedom of Information Act (FOIA)
About Us
Career Opportunities